Tiempo atmosférico en la estación meteorológica de Segorbe, Castelló/Castellón (460 m.)



Fecha
DESCASC
Temp. máxima en grados centígrados (hora)
DESCASC
Temp. mínima en grados centígrados (hora)
DESCASC
Temp. media en grados centígrados
DESCASC
Racha de viento máxima en m/sg (hora)
DESCASC
Velocidad máxima media en intervalos de 10 minutos(hora)
DESCASC
Precipitaciones diarias en mm
DESCASC
Precipitaciones de 00:00 a 06:00 en mm
DESCASC
Precipitaciones de 06:00 a 12:00 en mm
DESCASC
Precipitaciones de 12:00 a 18:00 en mm
DESCASC
Precipitaciones de 18:00 a 24:00 en mm
DESCASC
11-08-2020 29.9 (15:20) 19.2 (07:10) 24.6 7.22 (18:40) 3.89 (16:20) 0 0 0 0 0
10-08-2020 32.4 (14:10) 17.2 (06:40) 24.8 8.06 (15:20) 4.17 (15:10) 0 0 0 0 0
09-08-2020 34.2 (13:20) 18.3 (07:10) 26.3 7.22 (17:00) 4.17 (16:00) 0 0 0 0 0
08-08-2020 33.2 (13:10) 17.4 (07:00) 25.3 7.78 (14:00) 3.89 (14:30) 0 0 0 0 0
07-08-2020 32.5 (12:50) 16.8 (00:00) 24.6 7.78 (14:30) 4.17 (13:20) 0 0 0 0 0
06-08-2020 31.3 (14:20) 17.2 (00:00) 24.3 10 (15:20) 4.17 (15:30) 0 0 0 0 0
05-08-2020 29.1 (15:00) 17.1 (00:00) 23.1 8.89 (14:10) 4.17 (16:20) 0 0 0 0 0
04-08-2020 28.9 (11:50) 15.7 (06:20) 22.3 8.33 (14:20) 4.17 (14:30) 0 0 0 0 0
03-08-2020 29.5 (15:20) 19.7 (23:59) 24.6 9.72 (15:20) 3.89 (16:40) 0 0 0 0 0
02-08-2020 32.1 (12:40) 18.9 (00:00) 25.5 8.89 (13:40) 4.17 (13:40) 0 0 0 0 0
01-08-2020 34.5 (15:40) 18.4 (00:00) 26.4 8.33 (15:50) 5 (17:00) 0 0 0 0 0
31-07-2020 34.7 (12:30) 18.9 (06:30) 26.8 8.06 (14:40) 3.89 (18:40) 0 0 0 0 0
30-07-2020 33.7 (15:20) 16.6 (00:00) 25.2 8.61 (21:30) 3.61 (15:20) 0 0 0 0 0
29-07-2020 32.3 (14:20) 16.9 (00:00) 24.6 7.22 (16:40) 3.89 (17:20) 0 0 0 0 0
28-07-2020 33.3 (15:10) 18.6 (00:00) 25.9 8.06 (14:50) 4.17 (15:20) 0 0 0 0 0
27-07-2020 34.2 (15:50) 17 (00:00) 25.6 8.61 (14:30) 4.44 (14:30) 0 0 0 0 0
26-07-2020 31.3 (12:20) 17.2 (00:00) 24.3 8.61 (15:20) 3.89 (15:20) 0 0 0 0 0
25-07-2020 30.1 (14:20) 16.7 (00:00) 23.4 8.61 (15:40) 4.17 (15:30) 0 0 0 0 0
24-07-2020 31.3 (12:30) 16.4 (00:00) 23.8 7.78 (14:00) 3.89 (17:30) 0 0 0 0 0
23-07-2020 34 (15:00) 14 (00:00) 24 7.78 (16:40) 4.17 (16:40) 0 0 0 0 0
22-07-2020 30 (13:10) 15.6 (00:00) 22.8 7.22 (14:30) 3.33 (14:10) 1 0 0.8 0.2 0
21-07-2020 30.4 (16:20) 15.8 (00:00) 23.1 8.06 (13:50) 3.61 (13:50) 0 0 0 0 0
20-07-2020 28.7 (13:30) 19.2 (00:00) 24 6.94 (15:50) 3.61 (17:30) 0 0 0 0 0
19-07-2020 30.1 (12:50) 16.7 (00:00) 23.4 8.61 (13:00) 4.17 (13:00) 0 0 0 0 0
18-07-2020 29.5 (14:20) 15.5 (00:00) 22.5 10.28 (14:50) 4.17 (16:40) 0 0 0 0 0
17-07-2020 28 (14:20) 16.6 (00:00) 22.3 7.5 (14:00) 3.61 (16:50) 0 0 0 0 0
16-07-2020 27.4 (14:40) 15.9 (00:00) 21.6 7.78 (16:20) 4.17 (15:50) 0 0 0 0 0
15-07-2020 28.5 (15:40) 14.4 (00:00) 21.4 9.17 (14:20) 3.33 (17:40) 0 0 0 0 0
14-07-2020 27.4 (15:30) 16.7 (00:00) 22.1 7.78 (15:40) 3.89 (15:50) 1.6 0 0 0 1.6

Gráficas

Temp. máximas Temp. mínimas Temp. medias Precipitaciones Rachas de viento máximas Velocidades máximas media en intervalos de 10 minutos

Datos horarios

Fecha y hora oficial Temperatura (ºC) Velocidad del viento (km/h) Dirección del viento Racha (km/h) Dirección de racha Precipitación (mm) Presión (hPa) Tendencia (hPa) Humedad (%)
2020-08-12 23:00:00 19.2 9 Sudoeste 14 Sudoeste 0 -- -- 91
2020-08-12 22:00:00 20 9 Sudoeste 13 Sudoeste 0 -- -- 90
2020-08-12 21:00:00 21.3 7 Sudoeste 10 Sudoeste 0 -- -- 87
2020-08-12 20:00:00 22.9 3 Sudoeste 36 Sudoeste 1.8 -- -- 81
2020-08-12 19:00:00 28.9 9 Sur 27 Sur 0 -- -- 54
2020-08-12 18:00:00 30.2 13 Este 33 Este 0 -- -- 47
2020-08-12 17:00:00 33.1 14 Este 29 Este 0 -- -- 43
2020-08-12 16:00:00 33.8 8 Oeste 26 Oeste 0 -- -- 25
2020-08-12 15:00:00 34 12 Sudoeste 23 Sudoeste 0 -- -- 28
2020-08-12 14:00:00 33.7 8 Noroeste 22 Norte 0 -- -- 29
2020-08-12 13:00:00 31.8 9 Noroeste 26 Sur 0 -- -- 32
2020-08-12 12:00:00 31.4 6 Oeste 18 Sudoeste 0 -- -- 34
2020-08-12 11:00:00 28.8 4 Nordeste 14 Nordeste 0 -- -- 46
2020-08-12 10:00:00 27 6 Nordeste 10 Nordeste 0 -- -- 47
2020-08-12 09:00:00 23.4 0 Calma 5 Sudoeste 0 -- -- 53
2020-08-12 08:00:00 17.3 4 Sudoeste 11 Sudoeste 0 -- -- 71
2020-08-12 07:00:00 16.8 3 Oeste 12 Sudoeste 0 -- -- 73
2020-08-12 06:00:00 17.5 8 Sudoeste 13 Sudoeste 0 -- -- 71
2020-08-12 05:00:00 18.8 5 Oeste 11 Sudoeste 0 -- -- 69
2020-08-12 04:00:00 20.8 9 Sudoeste 21 Norte 0 -- -- 67
2020-08-12 03:00:00 22 16 Norte 29 Norte 0 -- -- 64
2020-08-12 02:00:00 21.2 2 Sudeste 12 Sudoeste 0 -- -- 62
2020-08-12 01:00:00 20.4 10 Sudoeste 13 Sudoeste 0 -- -- 65
2020-08-12 00:00:00 20.3 9 Sudoeste 14 Sudoeste 0 -- -- 64
2020-08-11 23:00:00 21.3 9 Sudoeste 13 Sudoeste 0 -- -- 60
2020-08-11 22:00:00 23.3 3 Sudoeste 11 Sudoeste 0 -- -- 61
2020-08-11 21:00:00 24.8 3 Sur 17 Sudeste 0 -- -- 62
2020-08-11 20:00:00 26.1 9 Sudeste 20 Sudeste 0 -- -- 54
2020-08-11 19:00:00 27.4 8 Este 26 Este 0 -- -- 50
2020-08-11 18:00:00 28.4 10 Este 24 Este 0 -- -- 45
2020-08-11 17:00:00 28.6 13 Sudeste 26 Sudeste 0 -- -- 44
2020-08-11 16:00:00 28.9 10 Sudeste 23 Sudeste 0 -- -- 40
2020-08-11 15:00:00 28.9 5 Nordeste 18 Norte 0 -- -- 43
2020-08-11 14:00:00 27.2 6 Sudeste 14 Sudeste 0 -- -- 56
2020-08-11 13:00:00 26.5 3 Oeste 6 Sur 0 -- -- 52
2020-08-11 12:00:00 26.1 3 Nordeste 8 Nordeste 0 -- -- 52
2020-08-11 11:00:00 25.4 4 Nordeste 10 Norte 0 -- -- 53
2020-08-11 10:00:00 24.2 3 Nordeste 6 Nordeste 0 -- -- 68
2020-08-11 09:00:00 21.7 0 Calma 5 Sudoeste 0 -- -- 71
2020-08-11 08:00:00 19.8 5 Sudoeste 11 Sudoeste 0 -- -- 76
2020-08-11 07:00:00 19.3 7 Sudoeste 11 Sudoeste 0 -- -- 76
2020-08-11 06:00:00 19.9 4 Sudoeste 12 Sudoeste 0 -- -- 74
2020-08-11 05:00:00 20.1 5 Sudoeste 10 Sudoeste 0 -- -- 77
2020-08-11 04:00:00 20.7 5 Oeste 9 Sudoeste 0 -- -- 79
2020-08-11 03:00:00 20.1 3 Sudoeste 10 Sudoeste 0 -- -- 82
2020-08-11 02:00:00 20.3 8 Sudoeste 12 Sudoeste 0 -- -- 80
2020-08-11 01:00:00 21.1 6 Sudoeste 14 Sudoeste 0 -- -- 76
2020-08-11 00:00:00 21.5 6 Sudoeste 12 Sudoeste 0 -- -- 75
2020-08-10 23:00:00 21.7 4 Sudoeste 10 Sudoeste 0 -- -- 72
2020-08-10 22:00:00 23.3 5 Sudoeste 8 Sudoeste 0 -- -- 69
2020-08-10 21:00:00 25.1 0 Calma 14 Sur 0 -- -- 66
2020-08-10 20:00:00 26.1 5 Sudoeste 20 Sudeste 0 -- -- 64
2020-08-10 19:00:00 26.9 9 Sudeste 26 Este 0 -- -- 58
2020-08-10 18:00:00 28.2 7 Sudeste 23 Este 0 -- -- 60
2020-08-10 17:00:00 30.5 9 Sudeste 26 Este 0 -- -- 49
2020-08-10 16:00:00 31.6 13 Sudeste 29 Sudeste 0 -- -- 41
2020-08-10 15:00:00 31.3 14 Este 27 Este 0 -- -- 45
2020-08-10 14:00:00 31.9 13 Este 27 Este 0 -- -- 46
2020-08-10 13:00:00 31.3 10 Este 23 Este 0 -- -- 45
2020-08-10 12:00:00 31.7 9 Sudeste 18 Sudeste 0 -- -- 33
2020-08-10 11:00:00 30.3 7 Este 15 Sudeste 0 -- -- 34
2020-08-10 10:00:00 27.9 3 Nordeste 6 Nordeste 0 -- -- 36
2020-08-10 09:00:00 22.5 0 Calma 7 Sudoeste 0 -- -- 50
2020-08-10 08:00:00 17.8 4 Sudoeste 14 Sudoeste 0 -- -- 62
2020-08-10 07:00:00 17.3 9 Sudoeste 13 Sudoeste 0 -- -- 61
2020-08-10 06:00:00 17.6 6 Sudoeste 14 Sudoeste 0 -- -- 64
2020-08-10 05:00:00 18.6 6 Sudoeste 13 Sudoeste 0 -- -- 60
2020-08-10 04:00:00 19.2 3 Sur 13 Sudoeste 0 -- -- 57
2020-08-10 03:00:00 19.8 10 Sudoeste 14 Noroeste 0 -- -- 61
2020-08-10 02:00:00 20.6 9 Sudoeste 14 Oeste 0 -- -- 60
2020-08-10 01:00:00 21.6 4 Este 22 Sur 0 -- -- 52
2020-08-10 00:00:00 20 7 Sudoeste 14 Sudoeste 0 -- -- 59
2020-08-09 23:00:00 21.6 5 Sudoeste 12 Sudoeste 0 -- -- 63
2020-08-09 22:00:00 23.2 4 Sudoeste 11 Sudoeste 0 -- -- 60
2020-08-09 21:00:00 25.9 0 Calma 15 Sur 0 -- -- 53
2020-08-09 20:00:00 27.4 6 Sudeste 20 Sudeste 0 -- -- 49
2020-08-09 19:00:00 29.1 9 Sudeste 24 Sudeste 0 -- -- 53
2020-08-09 18:00:00 31.2 11 Sudeste 26 Este 0 -- -- 45
2020-08-09 17:00:00 31.8 14 Sudeste 26 Sudeste 0 -- -- 47
2020-08-09 16:00:00 32.4 15 Sudeste 24 Sudeste 0 -- -- 42
2020-08-09 15:00:00 33.1 12 Sudeste 25 Sudeste 0 -- -- 42
2020-08-09 14:00:00 33.4 11 Sudeste 25 Sudeste 0 -- -- 45
2020-08-09 13:00:00 34 10 Sudeste 23 Este 0 -- -- 35
2020-08-09 12:00:00 32.9 8 Sudeste 19 Este 0 -- -- 34
2020-08-09 11:00:00 31.4 6 Este 13 Este 0 -- -- 42
2020-08-09 10:00:00 29 4 Nordeste 8 Nordeste 0 -- -- 38
2020-08-09 09:00:00 24.8 0 Calma 4 Norte 0 -- -- 52
2020-08-09 08:00:00 20 0 Calma 11 Sudoeste 0 -- -- 61
2020-08-09 07:00:00 18.7 4 Sudoeste 10 Sudoeste 0 -- -- 65
2020-08-09 06:00:00 19.5 6 Oeste 14 Sudoeste 0 -- -- 64
2020-08-09 05:00:00 20.1 6 Sudoeste 14 Sudoeste 0 -- -- 66
2020-08-09 04:00:00 21.2 7 Oeste 15 Sudoeste 0 -- -- 66
2020-08-09 03:00:00 20.6 9 Sudoeste 13 Sudoeste 0 -- -- 67
2020-08-09 02:00:00 21.9 3 Noroeste 14 Sudoeste 0 -- -- 65
2020-08-09 01:00:00 23 9 Sudoeste 15 Sudoeste 0 -- -- 64
2020-08-09 00:00:00 24.4 5 Este 17 Sur 0 -- -- 61
2020-08-08 23:00:00 25 4 Oeste 21 Noroeste 0 -- -- 59
2020-08-08 22:00:00 26.6 3 Sur 18 Sur 0 -- -- 50
2020-08-08 21:00:00 27.4 5 Nordeste 12 Nordeste 0 -- -- 54
2020-08-08 20:00:00 29.5 0 Calma 8 Sudoeste 0 -- -- 47
2020-08-08 19:00:00 29.9 0 Calma -- -- 0 -- -- 45
2020-08-08 18:00:00 29.7 5 Sudoeste 23 Nordeste 0 -- -- 44
2020-08-08 17:00:00 31.8 11 Este 23 Sudeste 0 -- -- 41
2020-08-08 16:00:00 32.5 12 Este 25 Sudeste 0 -- -- 39
2020-08-08 15:00:00 32.5 13 Sudeste 25 Sudeste 0 -- -- 43
2020-08-08 14:00:00 33.1 12 Sudeste 28 Este 0 -- -- 39
2020-08-08 13:00:00 33.1 11 Sudeste 22 Sudeste 0 -- -- 37
2020-08-08 12:00:00 32.6 11 Sudeste 22 Sudeste 0 -- -- 36
2020-08-08 11:00:00 32.2 9 Sudeste 18 Este 0 -- -- 29
2020-08-08 10:00:00 29.7 5 Nordeste 8 Nordeste 0 -- -- 36
2020-08-08 09:00:00 24.4 2 Oeste 9 Sudoeste 0 -- -- 49
2020-08-08 08:00:00 18.9 6 Sudoeste 12 Sudoeste 0 -- -- 61
2020-08-08 07:00:00 17.4 7 Sudoeste 13 Sudoeste 0 -- -- 63
2020-08-08 06:00:00 18.3 5 Sudoeste 14 Sudoeste 0 -- -- 58
2020-08-08 05:00:00 18.7 8 Sudoeste 13 Sudoeste 0 -- -- 57
2020-08-08 04:00:00 19.6 7 Sudoeste 15 Sudoeste 0 -- -- 55
2020-08-08 03:00:00 19.9 10 Sudoeste 15 Sudoeste 0 -- -- 54
2020-08-08 02:00:00 19.4 8 Sudoeste 14 Sudoeste 0 -- -- 63
2020-08-08 01:00:00 19.2 5 Sudoeste 13 Sudoeste 0 -- -- 62
2020-08-08 00:00:00 20.1 8 Sudoeste 11 Sudoeste 0 -- -- 62
2020-08-07 23:00:00 21.9 4 Oeste 11 Sudoeste 0 -- -- 57
2020-08-07 22:00:00 24.1 5 Sudoeste 9 Sudoeste 0 -- -- 52
2020-08-07 21:00:00 26.8 5 Este 13 Sur 0 -- -- 45
2020-08-07 20:00:00 28.4 6 Sur 21 Sudoeste 0 -- -- 42
2020-08-07 19:00:00 29.5 8 Sudeste 22 Este 0 -- -- 36
2020-08-07 18:00:00 30.9 9 Sudeste 23 Nordeste 0 -- -- 34
2020-08-07 17:00:00 31.4 12 Este 26 Este 0 -- -- 33
2020-08-07 16:00:00 31.8 14 Este 26 Sur 0 -- -- 39
2020-08-07 15:00:00 32.3 13 Sudeste 28 Este 0 -- -- 34
2020-08-07 14:00:00 31.9 12 Sudeste 27 Sudeste 0 -- -- 41
2020-08-07 13:00:00 32.2 13 Sudeste 26 Sudeste 0 -- -- 40
2020-08-07 12:00:00 31.7 8 Este 19 Sudeste 0 -- -- 37
2020-08-07 11:00:00 29.9 7 Este 14 Sudeste 0 -- -- 37
2020-08-07 10:00:00 27.8 4 Este 7 Este 0 -- -- 37
2020-08-07 09:00:00 23.5 0 Calma 6 Sudoeste 0 -- -- 55
2020-08-07 08:00:00 18.3 4 Sudoeste 14 Sudoeste 0 -- -- 68
2020-08-07 07:00:00 16.9 5 Oeste 12 Sudoeste 0 -- -- 73
2020-08-07 06:00:00 17.1 5 Sudoeste 14 Sudoeste 0 -- -- 74
2020-08-07 05:00:00 16.9 5 Sudoeste 12 Sudoeste 0 -- -- 76
2020-08-07 04:00:00 17.3 8 Sudoeste 12 Sudoeste 0 -- -- 75
2020-08-07 03:00:00 18.1 6 Sudoeste 12 Sudoeste 0 -- -- 74
2020-08-07 02:00:00 18.8 9 Sudoeste 13 Sudoeste 0 -- -- 77
2020-08-07 01:00:00 19.2 6 Sudoeste 13 Sudoeste 0 -- -- 77
2020-08-07 00:00:00 19.7 5 Sudoeste 11 Sudoeste 0 -- -- 74
2020-08-06 23:00:00 20.8 6 Sudoeste 10 Sudoeste 0 -- -- 71
2020-08-06 22:00:00 22.2 3 Oeste 8 Sur 0 -- -- 64
2020-08-06 21:00:00 24.8 4 Sur 14 Sudeste 0 -- -- 57
2020-08-06 20:00:00 26.1 6 Sudeste 19 Sudeste 0 -- -- 50
2020-08-06 19:00:00 27.5 8 Sudeste 23 Este 0 -- -- 53
2020-08-06 18:00:00 28.6 13 Sudeste 26 Sudeste 0 -- -- 50
2020-08-06 17:00:00 29.8 12 Este 31 Este 0 -- -- 49
2020-08-06 16:00:00 30.6 11 Sudeste 36 Este 0 -- -- 47
2020-08-06 15:00:00 30.7 14 Este 30 Este 0 -- -- 48
2020-08-06 14:00:00 31.2 12 Sudeste 27 Este 0 -- -- 46
2020-08-06 13:00:00 30.6 10 Este 26 Este 0 -- -- 46
2020-08-06 12:00:00 29.4 9 Este 20 Sudeste 0 -- -- 52
2020-08-06 11:00:00 28.1 6 Nordeste 13 Sudeste 0 -- -- 56
2020-08-06 10:00:00 25.7 5 Nordeste 9 Nordeste 0 -- -- 62
2020-08-06 09:00:00 23.1 2 Nordeste 6 Sudoeste 0 -- -- 75
2020-08-06 08:00:00 18.7 3 Oeste 11 Sudoeste 0 -- -- 91
2020-08-06 07:00:00 17.3 9 Sudoeste 11 Sudoeste 0 -- -- 92
2020-08-06 06:00:00 17.2 7 Sudoeste 9 Sudoeste 0 -- -- 92
2020-08-06 05:00:00 17.6 5 Sudoeste 11 Sudoeste 0 -- -- 92
2020-08-06 04:00:00 17.8 5 Sudoeste 11 Sudoeste 0 -- -- 90
2020-08-06 03:00:00 18 3 Sudoeste 11 Sudoeste 0 -- -- 89
2020-08-06 02:00:00 18.4 8 Sudoeste 13 Sudoeste 0 -- -- 86
2020-08-06 01:00:00 18.7 9 Sudoeste 12 Sudoeste 0 -- -- 78
2020-08-06 00:00:00 19.9 8 Sudoeste 11 Sudoeste 0 -- -- 85
2020-08-05 23:00:00 20.9 4 Sudoeste 6 Sudoeste 0 -- -- 83
2020-08-05 22:00:00 22.8 0 Calma 9 Sudeste 0 -- -- 79
2020-08-05 21:00:00 23.8 5 Sudeste 18 Este 0 -- -- 74
2020-08-05 20:00:00 25.2 9 Sudeste 20 Sudeste 0 -- -- 69
2020-08-05 19:00:00 26.3 11 Sudeste 24 Sudeste 0 -- -- 64
2020-08-05 18:00:00 27.4 10 Sudeste 25 Sudeste 0 -- -- 62
2020-08-05 17:00:00 28.2 12 Este 29 Este 0 -- -- 61
2020-08-05 16:00:00 28.8 14 Este 27 Este 0 -- -- 60
2020-08-05 15:00:00 29.1 8 Sudeste 32 Este 0 -- -- 60
2020-08-05 14:00:00 28 12 Este 27 Sudeste 0 -- -- 63
2020-08-05 13:00:00 27.6 9 Este 28 Este 0 -- -- 63
2020-08-05 12:00:00 26.7 7 Este 22 Nordeste 0 -- -- 62
2020-08-05 11:00:00 25.4 7 Norte 13 Nordeste 0 -- -- 68
2020-08-05 10:00:00 24.6 5 Nordeste 12 Nordeste 0 -- -- 68
2020-08-05 09:00:00 22.4 0 Calma 5 Sudoeste 0 -- -- 79
2020-08-05 08:00:00 18.3 0 Calma 12 Oeste 0 -- -- 93
2020-08-05 07:00:00 17.2 8 Sudoeste 11 Sudoeste 0 -- -- 93
2020-08-05 06:00:00 17.6 4 Sudoeste 10 Sudoeste 0 -- -- 91
2020-08-05 05:00:00 18.4 7 Sudoeste 10 Sudoeste 0 -- -- 90
2020-08-05 04:00:00 19.1 0 Calma 6 Oeste 0 -- -- 90
2020-08-05 03:00:00 20.1 3 Sudoeste 8 Sudoeste 0 -- -- 88
2020-08-05 02:00:00 20.5 6 Sudoeste 8 Sudoeste 0 -- -- 86
2020-08-05 01:00:00 20.7 4 Sudoeste 8 Sudoeste 0 -- -- 85
2020-08-05 00:00:00 20.3 6 Sudoeste 9 Sudoeste 0 -- -- 85
2020-08-04 23:00:00 20.7 5 Sudoeste 8 Sudoeste 0 -- -- 81
2020-08-04 22:00:00 22.3 3 Sudoeste 6 Sudeste 0 -- -- 76
2020-08-04 21:00:00 23.3 5 Sudeste 14 Sudeste 0 -- -- 75
2020-08-04 20:00:00 24.4 8 Sudeste 21 Sudeste 0 -- -- 68
2020-08-04 19:00:00 25.3 8 Sudeste 23 Sudeste 0 -- -- 63
2020-08-04 18:00:00 25.9 12 Sudeste 29 Sudeste 0 -- -- 60
2020-08-04 17:00:00 27.1 12 Este 29 Sudeste 0 -- -- 54
2020-08-04 16:00:00 27.4 13 Este 27 Este 0 -- -- 52
2020-08-04 15:00:00 27.5 13 Sudeste 30 Sudeste 0 -- -- 49
2020-08-04 14:00:00 26.4 13 Sudeste 28 Sudeste 0 -- -- 55
2020-08-04 13:00:00 26.6 10 Sudeste 24 Este 0 -- -- 56
2020-08-04 12:00:00 28.6 6 Sur 25 Sudeste 0 -- -- 43
2020-08-04 11:00:00 27.7 8 Este 17 Nordeste 0 -- -- 37
2020-08-04 10:00:00 25.9 6 Nordeste 21 Noroeste 0 -- -- 39
2020-08-04 09:00:00 25.2 13 Norte 21 Norte 0 -- -- 40
2020-08-04 08:00:00 20.2 3 Oeste 10 Oeste 0 -- -- 53
2020-08-04 07:00:00 16.7 4 Oeste 11 Noroeste 0 -- -- 65
2020-08-04 06:00:00 16 6 Sudoeste 13 Sudoeste 0 -- -- 76
2020-08-04 05:00:00 16.9 4 Oeste 12 Sudoeste 0 -- -- 80
2020-08-04 04:00:00 18.3 7 Sudoeste 11 Sudoeste 0 -- -- 89
2020-08-04 03:00:00 18.5 6 Sudoeste 10 Sudoeste 0 -- -- 89
2020-08-04 02:00:00 18.6 5 Sudoeste 11 Sudoeste 0 -- -- 86
2020-08-04 01:00:00 19.1 6 Sudoeste 9 Sudoeste 0 -- -- 85
2020-08-04 00:00:00 19.7 6 Sudoeste 9 Sudoeste 0 -- -- 82
2020-08-03 23:00:00 20.5 3 Sudoeste 6 Sudoeste 0 -- -- 78
2020-08-03 22:00:00 22.1 3 Sur 7 Sur 0 -- -- 72
2020-08-03 21:00:00 23.9 3 Sur 13 Este 0 -- -- 67
2020-08-03 20:00:00 25 5 Sudeste 19 Este 0 -- -- 63
2020-08-03 19:00:00 26.1 9 Este 22 Sudeste 0 -- -- 60
2020-08-03 18:00:00 26.6 10 Sudeste 27 Nordeste 0 -- -- 58
2020-08-03 17:00:00 27.6 11 Sudeste 30 Este 0 -- -- 55
2020-08-03 16:00:00 29 12 Sudeste 35 Sudeste 0 -- -- 51
2020-08-03 15:00:00 29.1 9 Sudeste 26 Sur 0 -- -- 49
2020-08-03 14:00:00 28.8 9 Sur 28 Sudeste 0 -- -- 51
2020-08-03 13:00:00 27.2 10 Este 18 Sudeste 0 -- -- 54
2020-08-03 12:00:00 26.6 8 Sudeste 15 Sudeste 0 -- -- 56
2020-08-03 11:00:00 25.2 4 Nordeste 10 Nordeste 0 -- -- 58
2020-08-03 10:00:00 22.9 2 Sudoeste 10 Nordeste 0 -- -- 60
2020-08-03 09:00:00 22 2 Sudoeste 9 Sur 0 -- -- 72
2020-08-03 08:00:00 21.4 3 Sudoeste 8 Sudoeste 0 -- -- 74
2020-08-03 07:00:00 21.6 3 Sudoeste 8 Oeste 0 -- -- 73
2020-08-03 06:00:00 21.8 3 Noroeste 8 Noroeste 0 -- -- 76
2020-08-03 05:00:00 21.4 2 Oeste 8 Sudoeste 0 -- -- 90
2020-08-03 04:00:00 20.8 5 Sudoeste 10 Sudoeste 0 -- -- 91
2020-08-03 03:00:00 20.8 8 Sudoeste 10 Sudoeste 0 -- -- 91
2020-08-03 02:00:00 20.6 6 Sudoeste 10 Sudoeste 0 -- -- 90
2020-08-03 01:00:00 21.2 5 Sudoeste 10 Sudoeste 0 -- -- 87
2020-08-03 00:00:00 22 6 Sudoeste 9 Sudoeste 0 -- -- 85
2020-08-02 23:00:00 23.2 2 Sur 8 Sudeste 0 -- -- 82
2020-08-02 22:00:00 24.3 3 Sudeste 9 Sur 0 -- -- 80
2020-08-02 21:00:00 25.4 5 Sudeste 17 Este 0 -- -- 75
2020-08-02 20:00:00 26.3 6 Sudeste 21 Sudeste 0 -- -- 72
2020-08-02 19:00:00 27.1 7 Sudeste 21 Sudeste 0 -- -- 70
2020-08-02 18:00:00 28.5 10 Sudeste 25 Sudeste 0 -- -- 64
2020-08-02 17:00:00 28.8 11 Sudeste 28 Este 0 -- -- 63
2020-08-02 16:00:00 29.1 10 Sudeste 27 Sudeste 0 -- -- 59
2020-08-02 15:00:00 29.3 13 Este 31 Este 0 -- -- 59
2020-08-02 14:00:00 30.2 15 Sudeste 32 Sudeste 0 -- -- 55
2020-08-02 13:00:00 31.7 9 Sudeste 26 Sudeste 0 -- -- 49
2020-08-02 12:00:00 30.1 4 Este 14 Nordeste 0 -- -- 57
2020-08-02 11:00:00 27.4 4 Nordeste 11 Nordeste 0 -- -- 66
2020-08-02 10:00:00 26.3 4 Este 9 Este 0 -- -- 72
2020-08-02 09:00:00 24.2 3 Norte 6 Sudeste 0 -- -- 78
2020-08-02 08:00:00 22.4 3 Sudoeste 8 Oeste 0 -- -- 92
2020-08-02 07:00:00 19.8 4 Sudoeste 10 Sudoeste 0 -- -- 88
2020-08-02 06:00:00 19 4 Sudoeste 11 Sudoeste 0 -- -- 84
2020-08-02 05:00:00 19.4 8 Sudoeste 11 Sudoeste 0 -- -- 82
2020-08-02 04:00:00 20.5 6 Sudoeste 12 Sudoeste 0 -- -- 78
2020-08-02 03:00:00 21.4 6 Sudoeste 13 Sudoeste 0 -- -- 76
2020-08-02 02:00:00 22.3 8 Sudoeste 15 Sudoeste 0 -- -- 74
2020-08-02 01:00:00 23 9 Sudoeste 14 Sudoeste 0 -- -- 79
2020-08-02 00:00:00 23.2 10 Sudoeste 13 Sudoeste 0 -- -- 79
2020-08-01 23:00:00 23.9 10 Sudoeste 13 Sudoeste 0 -- -- 77
2020-08-01 22:00:00 25.8 7 Sudoeste 10 Sudoeste 0 -- -- 72
2020-08-01 21:00:00 27.8 6 Sudoeste 18 Sudoeste 0 -- -- 65
2020-08-01 20:00:00 28.4 8 Sur 24 Sudeste 0 -- -- 67
2020-08-01 19:00:00 30.6 11 Sudeste 23 Sudeste 0 -- -- 64
2020-08-01 18:00:00 32 11 Sudeste 27 Sudeste 0 -- -- 57
2020-08-01 17:00:00 33.1 18 Sudeste 29 Sudeste 0 -- -- 55
2020-08-01 16:00:00 34.5 13 Sudeste 30 Sudeste 0 -- -- 49
2020-08-01 15:00:00 33.5 13 Sudeste 27 Sudeste 0 -- -- 52
2020-08-01 14:00:00 32.8 13 Sudeste 26 Sudeste 0 -- -- 54
2020-08-01 13:00:00 32.7 12 Este 23 Sudeste 0 -- -- 52
2020-08-01 12:00:00 32.3 11 Este 21 Este 0 -- -- 49
2020-08-01 11:00:00 31.6 8 Este 15 Sudeste 0 -- -- 45
2020-08-01 10:00:00 29.2 3 Nordeste 6 Nordeste 0 -- -- 44
2020-08-01 09:00:00 24.8 0 Calma 11 Sudoeste 0 -- -- 55
2020-08-01 08:00:00 19.9 0 Calma 12 Sudoeste 0 -- -- 72
2020-08-01 07:00:00 18.7 4 Sudoeste 13 Sudoeste 0 -- -- 72
2020-08-01 06:00:00 18.4 9 Sudoeste 13 Sudoeste 0 -- -- 72
2020-08-01 05:00:00 19.7 4 Sudoeste 12 Sudoeste 0 -- -- 69
2020-08-01 04:00:00 20 5 Sudoeste 10 Sudoeste 0 -- -- 70
2020-08-01 03:00:00 20.4 3 Sudoeste 11 Sudoeste 0 -- -- 71
2020-08-01 02:00:00 20.9 6 Sudoeste 10 Sudoeste 0 -- -- 73
2020-08-01 01:00:00 21.3 6 Sudoeste 13 Sudoeste 0 -- -- 76
2020-08-01 00:00:00 22.1 8 Sudoeste 13 Sudoeste 0 -- -- 76
2020-07-31 23:00:00 23.3 6 Sudoeste 11 Sudoeste 0 -- -- 71
2020-07-31 22:00:00 25.9 5 Sudoeste 10 Sudoeste 0 -- -- 65
2020-07-31 21:00:00 28.3 4 Sur 16 Este 0 -- -- 64
2020-07-31 20:00:00 29.7 6 Sudeste 19 Sudeste 0 -- -- 48
2020-07-31 19:00:00 31.2 7 Sudeste 23 Sudeste 0 -- -- 51
2020-07-31 18:00:00 32.1 11 Sudeste 26 Sudeste 0 -- -- 48
2020-07-31 17:00:00 33.7 11 Sudeste 27 Sudeste 0 -- -- 41
2020-07-31 16:00:00 33.7 13 Sudeste 26 Sudeste 0 -- -- 40
2020-07-31 15:00:00 34 13 Sudeste 29 Este 0 -- -- 43
2020-07-31 14:00:00 34.3 12 Sudeste 24 Este 0 -- -- 42
2020-07-31 13:00:00 34.4 13 Este 27 Este 0 -- -- 37
2020-07-31 12:00:00 34.2 9 Este 20 Este 0 -- -- 30
2020-07-31 11:00:00 32.8 5 Sudeste 11 Este 0 -- -- 32
2020-07-31 10:00:00 30.5 4 Nordeste 8 Este 0 -- -- 37
2020-07-31 09:00:00 26 0 Calma 12 Sudoeste 0 -- -- 49
2020-07-31 08:00:00 20.4 6 Sudoeste 15 Sudoeste 0 -- -- 65
2020-07-31 07:00:00 19.1 7 Sudoeste 14 Sudoeste 0 -- -- 68
2020-07-31 06:00:00 19.6 4 Sudoeste 11 Sudoeste 0 -- -- 66
2020-07-31 05:00:00 21.6 4 Sudoeste 15 Oeste 0 -- -- 60
2020-07-31 04:00:00 24 7 Sur 14 Sudoeste 0 -- -- 52
2020-07-31 03:00:00 24.5 4 Sudeste 12 Noroeste 0 -- -- 55
2020-07-31 02:00:00 25.5 5 Oeste 23 Noroeste 0 -- -- 53
2020-07-31 01:00:00 25.6 2 Nordeste 18 Sur 0 -- -- 53
2020-07-31 00:00:00 26.9 6 Sur 24 Sudoeste 0 -- -- 45
2020-07-30 23:00:00 26.8 8 Sudoeste 20 Sudoeste 0 -- -- 51
2020-07-30 22:00:00 27.4 4 Sudoeste 31 Noroeste 0 -- -- 50
2020-07-30 21:00:00 27.4 3 Oeste 14 Sudoeste 0 -- -- 40
2020-07-30 20:00:00 29.9 6 Sudoeste 18 Sudoeste 0 -- -- 40
2020-07-30 19:00:00 31.3 9 Sudeste 23 Sudeste 0 -- -- 37
2020-07-30 18:00:00 32.1 9 Sudeste 24 Este 0 -- -- 33
2020-07-30 17:00:00 32.8 9 Sur 26 Sudeste 0 -- -- 32
2020-07-30 16:00:00 33.2 11 Sudeste 27 Sudeste 0 -- -- 30
2020-07-30 15:00:00 33.6 11 Este 27 Este 0 -- -- 33
2020-07-30 14:00:00 33.4 9 Este 26 Este 0 -- -- 37
2020-07-30 13:00:00 32.2 11 Sudeste 22 Este 0 -- -- 34
2020-07-30 12:00:00 32 8 Sudeste 20 Nordeste 0 -- -- 33
2020-07-30 11:00:00 30.6 5 Nordeste 9 Sudeste 0 -- -- 37
2020-07-30 10:00:00 28.3 5 Norte 8 Norte 0 -- -- 40
2020-07-30 09:00:00 24.4 2 Nordeste 6 Sudoeste 0 -- -- 54
2020-07-30 08:00:00 19.9 3 Oeste 14 Sudoeste 0 -- -- 67
2020-07-30 07:00:00 16.8 7 Sudoeste 13 Sudoeste 0 -- -- 74
2020-07-30 06:00:00 17.2 3 Sudoeste 11 Sudoeste 0 -- -- 76
2020-07-30 05:00:00 18.2 6 Sudoeste 12 Sudoeste 0 -- -- 79
2020-07-30 04:00:00 19.1 8 Sudoeste 14 Sudoeste 0 -- -- 82
2020-07-30 03:00:00 19.5 6 Sudoeste 13 Sudoeste 0 -- -- 85
2020-07-30 02:00:00 19.7 7 Sudoeste 12 Sudoeste 0 -- -- 85
2020-07-30 01:00:00 19.4 6 Sudoeste 12 Sudoeste 0 -- -- 80
2020-07-30 00:00:00 20 6 Sudoeste 10 Sudoeste 0 -- -- 79
2020-07-29 23:00:00 21.1 3 Sudoeste 11 Sudoeste 0 -- -- 71
2020-07-29 22:00:00 24 5 Sudoeste 19 Sur 0 -- -- 63
2020-07-29 21:00:00 26.4 5 Sur 17 Sur 0 -- -- 65
2020-07-29 20:00:00 27.9 8 Sudoeste 19 Este 0 -- -- 58
2020-07-29 19:00:00 29.2 9 Sudeste 22 Sudeste 0 -- -- 55
2020-07-29 18:00:00 30.1 9 Sudeste 26 Este 0 -- -- 49
2020-07-29 17:00:00 30.9 12 Sudeste 26 Sudeste 0 -- -- 47
2020-07-29 16:00:00 31.5 11 Sudeste 25 Sudeste 0 -- -- 41
2020-07-29 15:00:00 32.1 10 Sudeste 22 Sudeste 0 -- -- 38
2020-07-29 14:00:00 31.7 7 Sudeste 22 Sudeste 0 -- -- 41
2020-07-29 13:00:00 31 10 Este 23 Sudeste 0 -- -- 40
2020-07-29 12:00:00 30 4 Sudeste 21 Nordeste 0 -- -- 49
2020-07-29 11:00:00 28.7 7 Norte 15 Nordeste 0 -- -- 50
2020-07-29 10:00:00 27.3 4 Este 9 Sudeste 0 -- -- 49
2020-07-29 09:00:00 24 2 Este 5 Sur 0 -- -- 56
2020-07-29 08:00:00 18.8 4 Sudoeste 12 Sudoeste 0 -- -- 71
2020-07-29 07:00:00 16.9 3 Sudoeste 12 Sudoeste 0 -- -- 74
2020-07-29 06:00:00 17.3 3 Sudoeste 13 Sudoeste 0 -- -- 69
2020-07-29 05:00:00 18 10 Sudoeste 15 Sudoeste 0 -- -- 67
2020-07-29 04:00:00 18.7 10 Sudoeste 14 Sudoeste 0 -- -- 66
2020-07-29 03:00:00 19 6 Sudoeste 15 Sudoeste 0 -- -- 66
2020-07-29 02:00:00 19.5 10 Sudoeste 14 Sudoeste 0 -- -- 67
2020-07-29 01:00:00 19.8 11 Sudoeste 13 Sudoeste 0 -- -- 67
2020-07-29 00:00:00 20.4 8 Sudoeste 13 Sudoeste 0 -- -- 63
2020-07-28 23:00:00 21.6 6 Sudoeste 12 Sudoeste 0 -- -- 60
2020-07-28 22:00:00 23.3 2 Sudoeste 6 Sudoeste 0 -- -- 56
2020-07-28 21:00:00 26.9 3 Sur 15 Sudeste 0 -- -- 46
2020-07-28 20:00:00 29 6 Sudeste 19 Sudeste 0 -- -- 40
2020-07-28 19:00:00 30 11 Sudeste 22 Este 0 -- -- 38
2020-07-28 18:00:00 31.4 10 Sudeste 24 Este 0 -- -- 35
2020-07-28 17:00:00 32 12 Sudeste 28 Este 0 -- -- 37
2020-07-28 16:00:00 32.7 12 Sudeste 27 Este 0 -- -- 34
2020-07-28 15:00:00 33.2 10 Este 29 Este 0 -- -- 37
2020-07-28 14:00:00 32.9 10 Sudeste 27 Sudeste 0 -- -- 38
2020-07-28 13:00:00 32.1 9 Sudeste 19 Este 0 -- -- 43
2020-07-28 12:00:00 30.7 10 Este 21 Este 0 -- -- 47
2020-07-28 11:00:00 29.5 8 Sudeste 20 Este 0 -- -- 45
2020-07-28 10:00:00 28.6 9 Este 17 Sudeste 0 -- -- 44
2020-07-28 09:00:00 24.2 2 Nordeste 9 Sudoeste 0 -- -- 48
2020-07-28 08:00:00 19.7 3 Sudoeste 15 Sudoeste 0 -- -- 57
2020-07-28 07:00:00 18.9 10 Sudoeste 15 Sudoeste 0 -- -- 57
2020-07-28 06:00:00 18.7 3 Sudoeste 13 Sudoeste 0 -- -- 58
2020-07-28 05:00:00 19.5 8 Sudoeste 14 Sudoeste 0 -- -- 55
2020-07-28 04:00:00 19.7 8 Sudoeste 14 Sudoeste 0 -- -- 55
2020-07-28 03:00:00 19.9 8 Sudoeste 13 Sudoeste 0 -- -- 55
2020-07-28 02:00:00 20.3 9 Sudoeste 14 Sudoeste 0 -- -- 55
2020-07-28 01:00:00 21.5 9 Sudoeste 14 Sudoeste 0 -- -- 54
2020-07-28 00:00:00 22 8 Sudoeste 14 Sudoeste 0 -- -- 53
2020-07-27 23:00:00 23.1 7 Sudoeste 13 Sudoeste 0 -- -- 50
2020-07-27 22:00:00 24.6 3 Sudoeste 6 Sudeste 0 -- -- 47
2020-07-27 21:00:00 28 4 Sudeste 13 Sudeste 0 -- -- 37
2020-07-27 20:00:00 29.9 7 Sudeste 20 Sudeste 0 -- -- 35
2020-07-27 19:00:00 31.2 8 Este 21 Este 0 -- -- 36
2020-07-27 18:00:00 32.5 11 Sudeste 24 Sudeste 0 -- -- 35
2020-07-27 17:00:00 33.5 9 Sudeste 27 Este 0 -- -- 37
2020-07-27 16:00:00 34.1 14 Sudeste 26 Sudeste 0 -- -- 35
2020-07-27 15:00:00 33.5 13 Este 31 Este 0 -- -- 38
2020-07-27 14:00:00 33.5 13 Sudeste 28 Este 0 -- -- 39
2020-07-27 13:00:00 33 13 Este 25 Sudeste 0 -- -- 43
2020-07-27 12:00:00 32.2 10 Sudeste 20 Este 0 -- -- 36
2020-07-27 09:00:00 -- -- -- -- -- -- -- -- --
2020-07-27 08:00:00 -- -- -- -- -- -- -- -- --
2020-07-27 07:00:00 17 3 Sudoeste 9 Sudoeste 0 -- -- 87
2020-07-27 06:00:00 17.2 3 Sudoeste 10 Sudoeste 0 -- -- 88
2020-07-27 05:00:00 17.4 8 Sudoeste 13 Sudoeste 0 -- -- 87
2020-07-27 04:00:00 17.7 9 Sudoeste 13 Sudoeste 0 -- -- 86
2020-07-27 03:00:00 18.4 8 Sudoeste 12 Sudoeste 0 -- -- 87
2020-07-27 02:00:00 19.1 7 Sudoeste 11 Sudoeste 0 -- -- 86
2020-07-27 01:00:00 19.6 8 Sudoeste 12 Sudoeste 0 -- -- 84
2020-07-27 00:00:00 20.3 8 Sudoeste 10 Sudoeste 0 -- -- 80
2020-07-26 23:00:00 21.4 4 Sudoeste 8 Sudoeste 0 -- -- 76
2020-07-26 22:00:00 23.4 2 Sudoeste 7 Sudeste 0 -- -- 70
2020-07-26 21:00:00 25.5 2 Sudeste 15 Sudeste 0 -- -- 64
2020-07-26 20:00:00 26.8 8 Sudeste 17 Este 0 -- -- 57
2020-07-26 19:00:00 28.3 9 Sudeste 23 Este 0 -- -- 46
2020-07-26 18:00:00 29.3 12 Sudeste 26 Este 0 -- -- 47
2020-07-26 17:00:00 29.6 12 Este 26 Este 0 -- -- 50
2020-07-26 16:00:00 29.9 12 Sudeste 31 Este 0 -- -- 53
2020-07-26 15:00:00 30.2 13 Este 27 Este 0 -- -- 50
2020-07-26 14:00:00 30.5 11 Sudeste 24 Sudeste 0 -- -- 49
2020-07-26 13:00:00 30.8 11 Sudeste 23 Este 0 -- -- 47
2020-07-26 12:00:00 30.9 10 Nordeste 18 Nordeste 0 -- -- 36
2020-07-26 11:00:00 29.6 6 Sudeste 12 Este 0 -- -- 39
2020-07-26 10:00:00 27.3 4 Nordeste 9 Nordeste 0 -- -- 46
2020-07-26 09:00:00 24.3 2 Este 4 Nordeste 0 -- -- 64
2020-07-26 08:00:00 19.4 0 Calma 12 Sudoeste 0 -- -- 80
2020-07-26 07:00:00 17.3 8 Sudoeste 11 Sudoeste 0 -- -- 85
2020-07-26 06:00:00 17.3 5 Sudoeste 10 Sudoeste 0 -- -- 86
2020-07-26 05:00:00 17.7 2 Sudoeste 12 Sudoeste 0 -- -- 84
2020-07-26 04:00:00 17.7 6 Sudoeste 10 Sudoeste 0 -- -- 82
2020-07-26 03:00:00 18.2 6 Sudoeste 10 Sudoeste 0 -- -- 80
2020-07-26 02:00:00 18.8 8 Sudoeste 13 Sudoeste 0 -- -- 78
2020-07-26 01:00:00 19.2 6 Sudoeste 12 Sudoeste 0 -- -- 75
2020-07-26 00:00:00 20.1 8 Sudoeste 11 Sudoeste 0 -- -- 74
2020-07-25 23:00:00 21.1 5 Sudoeste 8 Sudoeste 0 -- -- 72
2020-07-25 22:00:00 23 0 Calma 9 Sudeste 0 -- -- 65
2020-07-25 21:00:00 25.1 6 Sudeste 14 Sudeste 0 -- -- 60
2020-07-25 20:00:00 26.6 8 Sudeste 23 Sudeste 0 -- -- 57
2020-07-25 19:00:00 27.9 8 Sudeste 22 Sudeste 0 -- -- 56
2020-07-25 18:00:00 28.4 13 Este 26 Nordeste 0 -- -- 55
2020-07-25 17:00:00 29.4 11 Sudeste 27 Este 0 -- -- 51
2020-07-25 16:00:00 29.8 11 Este 31 Este 0 -- -- 48
2020-07-25 15:00:00 29.8 12 Sudeste 24 Sudeste 0 -- -- 49
2020-07-25 14:00:00 29.4 12 Sudeste 22 Sudeste 0 -- -- 51
2020-07-25 13:00:00 29.1 10 Este 21 Sudeste 0 -- -- 50
2020-07-25 12:00:00 28.7 8 Sudeste 21 Este 0 -- -- 47
2020-07-25 11:00:00 27.8 7 Sudeste 15 Sur 0 -- -- 47
2020-07-25 10:00:00 26.4 6 Este 10 Sudeste 0 -- -- 43
2020-07-25 09:00:00 23.9 2 Norte 5 Sudoeste 0 -- -- 53
2020-07-25 08:00:00 18.8 2 Sudoeste 10 Sudoeste 0 -- -- 68
2020-07-25 07:00:00 16.7 7 Sudoeste 12 Sudoeste 0 -- -- 70
2020-07-25 06:00:00 16.9 5 Oeste 12 Sudoeste 0 -- -- 65
2020-07-25 05:00:00 17.3 8 Sudoeste 14 Sudoeste 0 -- -- 63
2020-07-25 04:00:00 17.3 6 Sudoeste 12 Sudoeste 0 -- -- 64
2020-07-25 03:00:00 17.9 7 Sudoeste 10 Sudoeste 0 -- -- 66
2020-07-25 02:00:00 18.6 6 Sudoeste 12 Sudoeste 0 -- -- 65
2020-07-25 01:00:00 18.9 8 Sudoeste 14 Sudoeste 0 -- -- 61
2020-07-25 00:00:00 19.1 11 Sudoeste 13 Sudoeste 0 -- -- 55
2020-07-24 23:00:00 20.6 5 Sudoeste 10 Sudoeste 0 -- -- 58
2020-07-24 22:00:00 22.3 6 Sudoeste 12 Oeste 0 -- -- 54
2020-07-24 21:00:00 24.9 2 Este 17 Sudeste 0 -- -- 47
2020-07-24 20:00:00 26 8 Sudeste 19 Sudeste 0 -- -- 46
2020-07-24 19:00:00 27 10 Sudeste 22 Este 0 -- -- 43
2020-07-24 18:00:00 28.3 9 Sudeste 24 Este 0 -- -- 41
2020-07-24 17:00:00 29.8 12 Sudeste 26 Sudeste 0 -- -- 37
2020-07-24 16:00:00 29.9 11 Sudeste 27 Sudeste 0 -- -- 41
2020-07-24 15:00:00 30.1 11 Sudeste 28 Sudeste 0 -- -- 40
2020-07-24 14:00:00 30.6 13 Sudeste 28 Sudeste 0 -- -- 35
2020-07-24 13:00:00 31 10 Sudeste 25 Sudeste 0 -- -- 27
2020-07-24 12:00:00 30.7 9 Este 21 Sudeste 0 -- -- 28
2020-07-24 11:00:00 29.5 9 Este 21 Este 0 -- -- 28
2020-07-24 10:00:00 28.4 7 Este 12 Este 0 -- -- 31
2020-07-24 09:00:00 23.9 0 Calma 4 Sur 0 -- -- 37
2020-07-24 08:00:00 19.1 2 Oeste 12 Sudoeste 0 -- -- 47
2020-07-24 07:00:00 16.5 3 Sudoeste 13 Sudoeste 0 -- -- 48
2020-07-24 06:00:00 16.4 7 Sudoeste 13 Sudoeste 0 -- -- 48
2020-07-24 05:00:00 16.8 4 Oeste 15 Sudoeste 0 -- -- 50
2020-07-24 04:00:00 17 9 Sudoeste 14 Oeste 0 -- -- 54
2020-07-24 03:00:00 18 7 Sudoeste 14 Oeste 0 -- -- 54
2020-07-24 02:00:00 17.9 10 Sudoeste 14 Sudoeste 0 -- -- 58
2020-07-24 01:00:00 19 9 Sudoeste 13 Sudoeste 0 -- -- 59
2020-07-24 00:00:00 19.8 8 Sudoeste 13 Sudoeste 0 -- -- 56
2020-07-23 23:00:00 20.7 9 Sudoeste 13 Sudoeste 0 -- -- 53
2020-07-23 22:00:00 22.2 8 Sudoeste 10 Sudoeste 0 -- -- 49
2020-07-23 21:00:00 26.8 3 Sudeste 16 Este 0 -- -- 38
2020-07-23 20:00:00 29 7 Sudeste 18 Sudeste 0 -- -- 33
2020-07-23 19:00:00 31 8 Sudeste 21 Este 0 -- -- 25
2020-07-23 18:00:00 31.9 10 Sudeste 27 Este 0 -- -- 23
2020-07-23 17:00:00 32.6 14 Este 28 Este 0 -- -- 23
2020-07-23 16:00:00 33.4 11 Sudeste 27 Este 0 -- -- 27
2020-07-23 15:00:00 34 9 Nordeste 22 Nordeste 0 -- -- 24
2020-07-23 14:00:00 33.4 9 Sudeste 20 Este 0 -- -- 22
2020-07-23 13:00:00 32.4 8 Este 18 Este 0 -- -- 27
2020-07-23 12:00:00 31.7 8 Sudeste 17 Sudeste 0 -- -- 29
2020-07-23 11:00:00 29.9 7 Este 17 Este 0 -- -- 28
2020-07-23 10:00:00 27.2 5 Nordeste 9 Nordeste 0 -- -- 32
2020-07-23 09:00:00 22.3 0 Calma 2 Nordeste 0 -- -- 42
2020-07-23 08:00:00 16.6 0 Calma 11 Sudoeste 0 -- -- 60
2020-07-23 07:00:00 14.6 3 Sudoeste 12 Sudoeste 0 -- -- 59
2020-07-23 06:00:00 14 0 Calma 10 Sudoeste 0 -- -- 63
2020-07-23 05:00:00 15.2 3 Sudoeste 13 Sudoeste 0 -- -- 60
2020-07-23 04:00:00 15 9 Sudoeste 14 Sudoeste 0 -- -- 59
2020-07-23 03:00:00 15.3 9 Sudoeste 15 Sudoeste 0 -- -- 59
2020-07-23 02:00:00 15.5 3 Sudoeste 12 Sudoeste 0 -- -- 62
2020-07-23 01:00:00 16.2 8 Sudoeste 13 Sudoeste 0 -- -- 59
2020-07-23 00:00:00 16.9 6 Sudoeste 14 Sudoeste 0 -- -- 59
2020-07-22 23:00:00 18.6 7 Sudoeste 15 Sudoeste 0 -- -- 54
2020-07-22 22:00:00 20.1 12 Sudoeste 15 Sudoeste 0 -- -- 53
2020-07-22 21:00:00 23 8 Sudoeste 10 Sudoeste 0 -- -- 49
2020-07-22 20:00:00 26.5 2 Sudeste 8 Sudeste 0 -- -- 33
2020-07-22 19:00:00 27.6 5 Este 13 Este 0 -- -- 38
2020-07-22 18:00:00 26.6 3 Nordeste 11 Sudeste 0 -- -- 44
2020-07-22 17:00:00 26.4 6 Sudeste 20 Sudeste 0 -- -- 44
2020-07-22 16:00:00 26.9 7 Sudeste 19 Sudeste 0.2 -- -- 41
2020-07-22 15:00:00 28.1 10 Sudeste 26 Este 0 -- -- 39
2020-07-22 14:00:00 30 11 Sudeste 24 Sudeste 0 -- -- 36
2020-07-22 13:00:00 29.7 8 Sudeste 22 Este 0 -- -- 32
2020-07-22 12:00:00 28.3 10 Este 20 Este 0 -- -- 35
2020-07-22 11:00:00 23.5 9 Sudoeste 14 Sudoeste 0.8 -- -- 71
2020-07-22 10:00:00 26.7 4 Nordeste 8 Nordeste 0 -- -- 40
2020-07-22 09:00:00 23.2 2 Norte 6 Norte 0 -- -- 51
2020-07-22 08:00:00 18 0 Calma 9 Sudoeste 0 -- -- 66
2020-07-22 07:00:00 15.6 5 Sudoeste 10 Sudoeste 0 -- -- 72
2020-07-22 06:00:00 16 3 Sudoeste 15 Sudoeste 0 -- -- 69
2020-07-22 05:00:00 16.2 12 Sudoeste 16 Sudoeste 0 -- -- 76
2020-07-22 04:00:00 17 3 Sudoeste 14 Sudoeste 0 -- -- 74
2020-07-22 03:00:00 17.1 8 Sudoeste 11 Sudoeste 0 -- -- 74
2020-07-22 02:00:00 18 3 Oeste 13 Sudoeste 0 -- -- 71
2020-07-22 01:00:00 18.7 9 Sudoeste 13 Sudoeste 0 -- -- 69
2020-07-22 00:00:00 19.3 5 Sudoeste 13 Sudoeste 0 -- -- 64
2020-07-21 23:00:00 19.2 9 Sudoeste 13 Sudoeste 0 -- -- 56
2020-07-21 22:00:00 21.1 9 Sudoeste 13 Sudoeste 0 -- -- 57
2020-07-21 21:00:00 24.8 3 Sur 15 Sudeste 0 -- -- 49
2020-07-21 20:00:00 26.3 7 Sudeste 19 Sudeste 0 -- -- 40
2020-07-21 19:00:00 27.2 10 Sudeste 25 Este 0 -- -- 40
2020-07-21 18:00:00 29.1 11 Sudeste 26 Este 0 -- -- 43
2020-07-21 17:00:00 30 11 Sudeste 26 Sudeste 0 -- -- 42
2020-07-21 16:00:00 30.2 13 Sudeste 23 Este 0 -- -- 42
2020-07-21 15:00:00 29.8 10 Sudeste 24 Este 0 -- -- 45
2020-07-21 14:00:00 29.4 12 Este 29 Este 0 -- -- 52
2020-07-21 13:00:00 29.4 10 Sudeste 23 Este 0 -- -- 49
2020-07-21 12:00:00 29 7 Este 17 Sur 0 -- -- 45
2020-07-21 11:00:00 27.1 4 Sudeste 11 Este 0 -- -- 57
2020-07-21 10:00:00 24.4 3 Nordeste 9 Nordeste 0 -- -- 69
2020-07-21 09:00:00 21.8 2 Este 4 Este 0 -- -- 81
2020-07-21 08:00:00 17.3 3 Oeste 10 Sudoeste 0 -- -- 97
2020-07-21 07:00:00 15.9 4 Sudoeste 8 Sudoeste 0 -- -- 95
2020-07-21 06:00:00 16.6 5 Sudoeste 10 Sudoeste 0 -- -- 94
2020-07-21 05:00:00 17 4 Oeste 9 Sudoeste 0 -- -- 94
2020-07-21 04:00:00 17.4 6 Sudoeste 11 Sudoeste 0 -- -- 93
2020-07-21 03:00:00 17.8 8 Sudoeste 12 Sudoeste 0 -- -- 93
2020-07-21 02:00:00 18.4 5 Oeste 9 Sudoeste 0 -- -- 92
2020-07-21 01:00:00 18.6 6 Sudoeste 11 Sudoeste 0 -- -- 91
2020-07-21 00:00:00 19.2 8 Sudoeste 10 Sudoeste 0 -- -- 88
2020-07-20 23:00:00 20.1 6 Sudoeste 10 Sudoeste 0 -- -- 84
2020-07-20 22:00:00 21.7 2 Sudoeste 8 Sudeste 0 -- -- 78
2020-07-20 21:00:00 23.2 4 Sudeste 17 Sudeste 0 -- -- 75
2020-07-20 20:00:00 24 8 Sudeste 19 Este 0 -- -- 74
2020-07-20 19:00:00 25.6 8 Sudeste 24 Sudeste 0 -- -- 70
2020-07-20 18:00:00 26.1 9 Sudeste 24 Sudeste 0 -- -- 69
2020-07-20 17:00:00 26.6 9 Sudeste 23 Sudeste 0 -- -- 68
2020-07-20 16:00:00 27.7 9 Sudeste 25 Este 0 -- -- 66
2020-07-20 15:00:00 27.3 9 Sudeste 19 Sudeste 0 -- -- 68
2020-07-20 14:00:00 27.8 8 Sudeste 23 Sudeste 0 -- -- 63
2020-07-20 13:00:00 28 8 Este 18 Este 0 -- -- 61
2020-07-20 12:00:00 26 4 Sudeste 11 Nordeste 0 -- -- 66
2020-07-20 11:00:00 24.6 3 Nordeste 9 Nordeste 0 -- -- 72
2020-07-20 10:00:00 23.5 3 Nordeste 8 Norte 0 -- -- 76
2020-07-20 09:00:00 21.8 0 Calma -- -- 0 -- -- 85
2020-07-20 08:00:00 20.1 0 Calma -- -- 0 -- -- 90
2020-07-20 07:00:00 20 0 Calma 4 Sudoeste 0 -- -- 89
2020-07-20 06:00:00 20.4 0 Calma 5 Sur 0 -- -- 89
2020-07-20 05:00:00 20.2 3 Sudoeste 6 Sudoeste 0 -- -- 88
2020-07-20 04:00:00 20.1 3 Sudoeste 8 Oeste 0 -- -- 88
2020-07-20 03:00:00 19.9 3 Sudoeste 10 Sudoeste 0 -- -- 87
2020-07-20 02:00:00 20 5 Sudoeste 8 Sudoeste 0 -- -- 86
2020-07-20 01:00:00 20.5 6 Sudoeste 8 Sudoeste 0 -- -- 85
2020-07-20 00:00:00 20.9 3 Sudoeste 9 Sudoeste 0 -- -- 83
2020-07-19 23:00:00 22.2 0 Calma 9 Sur 0 -- -- 80
2020-07-19 22:00:00 22.9 2 Sur 8 Sudeste 0 -- -- 77
2020-07-19 21:00:00 23.6 5 Sudeste 18 Este 0 -- -- 73
2020-07-19 20:00:00 24.4 8 Sudeste 22 Sudeste 0 -- -- 70
2020-07-19 19:00:00 25.6 9 Sudeste 24 Este 0 -- -- 67
2020-07-19 18:00:00 26.5 13 Sudeste 25 Este 0 -- -- 63
2020-07-19 17:00:00 28.3 12 Sudeste 28 Sudeste 0 -- -- 53
2020-07-19 16:00:00 29 13 Sudeste 29 Sudeste 0 -- -- 55
2020-07-19 15:00:00 29.6 12 Sudeste 27 Sudeste 0 -- -- 57
2020-07-19 14:00:00 29.8 13 Sudeste 29 Este 0 -- -- 57
2020-07-19 13:00:00 30 15 Sudeste 31 Sudeste 0 -- -- 54
2020-07-19 12:00:00 29.4 8 Sudeste 19 Sudeste 0 -- -- 50
2020-07-19 11:00:00 27.9 7 Nordeste 15 Nordeste 0 -- -- 48
2020-07-19 10:00:00 25.6 4 Este 9 Nordeste 0 -- -- 57
2020-07-19 09:00:00 22.8 2 Nordeste 5 Sudeste 0 -- -- 71
2020-07-19 08:00:00 19 0 Calma 10 Sudoeste 0 -- -- 90
2020-07-19 07:00:00 16.7 8 Sudoeste 11 Sudoeste 0 -- -- 94
2020-07-19 06:00:00 16.9 6 Sudoeste 10 Sudoeste 0 -- -- 94
2020-07-19 05:00:00 17 7 Sudoeste 10 Sudoeste 0 -- -- 92
2020-07-19 04:00:00 17.7 4 Sudoeste 12 Sudoeste 0 -- -- 91
2020-07-19 03:00:00 18 7 Sudoeste 11 Sudoeste 0 -- -- 91
2020-07-19 02:00:00 18.6 6 Sudoeste 10 Sudoeste 0 -- -- 90
2020-07-19 01:00:00 19.1 5 Sudoeste 11 Sudoeste 0 -- -- 87
2020-07-19 00:00:00 19.7 6 Sudoeste 10 Sudoeste 0 -- -- 85
2020-07-18 23:00:00 20.8 3 Sudoeste 5 Sudoeste 0 -- -- 79
2020-07-18 22:00:00 22.6 2 Sur 8 Sudeste 0 -- -- 74
2020-07-18 21:00:00 23.8 6 Sudeste 14 Este 0 -- -- 71
2020-07-18 20:00:00 25 9 Sudeste 20 Este 0 -- -- 66
2020-07-18 19:00:00 26.5 9 Sudeste 24 Este 0 -- -- 60
2020-07-18 18:00:00 27 12 Este 26 Sudeste 0 -- -- 60
2020-07-18 17:00:00 27.6 14 Este 31 Este 0 -- -- 59
2020-07-18 16:00:00 28.3 14 Este 29 Este 0 -- -- 56
2020-07-18 15:00:00 28.5 12 Sudeste 37 Sur 0 -- -- 52
2020-07-18 14:00:00 29.3 5 Este 28 Sudeste 0 -- -- 50
2020-07-18 13:00:00 27.9 8 Sur 26 Nordeste 0 -- -- 56
2020-07-18 12:00:00 26.2 4 Sudeste 21 Este 0 -- -- 58
2020-07-18 11:00:00 26.4 8 Este 14 Nordeste 0 -- -- 58
2020-07-18 10:00:00 24.8 4 Este 10 Nordeste 0 -- -- 65
2020-07-18 09:00:00 22.2 3 Nordeste 5 Nordeste 0 -- -- 73
2020-07-18 08:00:00 17.6 0 Calma 10 Sudoeste 0 -- -- 93
2020-07-18 07:00:00 15.5 5 Sudoeste 9 Sudoeste 0 -- -- 95
2020-07-18 06:00:00 15.7 6 Sudoeste 9 Sudoeste 0 -- -- 93
2020-07-18 05:00:00 16.2 4 Sudoeste 12 Sudoeste 0 -- -- 93
2020-07-18 04:00:00 16.6 9 Sudoeste 13 Sudoeste 0 -- -- 92
2020-07-18 03:00:00 17.3 6 Sudoeste 11 Sudoeste 0 -- -- 91
2020-07-18 02:00:00 17.7 5 Sudoeste 12 Sudoeste 0 -- -- 89
2020-07-18 01:00:00 18.5 6 Sudoeste 10 Sudoeste 0 -- -- 88
2020-07-18 00:00:00 19.1 7 Sudoeste 9 Sudoeste 0 -- -- 84
2020-07-17 23:00:00 19.8 3 Sudoeste 5 Sudoeste 0 -- -- 81
2020-07-17 22:00:00 22 3 Sur 12 Sudeste 0 -- -- 78
2020-07-17 21:00:00 23.2 5 Sudeste 17 Sur 0 -- -- 69
2020-07-17 20:00:00 24.4 9 Sudeste 19 Sudeste 0 -- -- 61
2020-07-17 19:00:00 25.7 7 Este -- -- 0 -- -- 57
2020-07-17 18:00:00 26.1 10 Este 22 Este 0 -- -- 54
2020-07-17 17:00:00 26.4 8 Sudeste 22 Este 0 -- -- 57
2020-07-17 16:00:00 24.8 9 Sudeste 23 Este 0 -- -- 63
2020-07-17 15:00:00 25.7 10 Sudeste 24 Este 0 -- -- 63
2020-07-17 14:00:00 27.2 9 Sudeste 27 Sur 0 -- -- 58
2020-07-17 13:00:00 25.6 9 Sudeste 23 Este 0 -- -- 63
2020-07-17 12:00:00 25 6 Sudeste 16 Sudeste 0 -- -- 67
2020-07-17 11:00:00 24.9 7 Este 20 Este 0 -- -- 67
2020-07-17 10:00:00 23.1 6 Este 14 Este 0 -- -- 76
2020-07-17 09:00:00 22.6 5 Este 9 Este 0 -- -- 76
2020-07-17 08:00:00 18.7 2 Sur 8 Sudoeste 0 -- -- 89
2020-07-17 07:00:00 16.6 4 Oeste 10 Sudoeste 0 -- -- 92
2020-07-17 06:00:00 16.8 8 Sudoeste 13 Sudoeste 0 -- -- 92
2020-07-17 05:00:00 16.9 9 Sudoeste 12 Sudoeste 0 -- -- 91
2020-07-17 04:00:00 17.1 8 Sudoeste 12 Sudoeste 0 -- -- 89
2020-07-17 03:00:00 17.4 8 Sudoeste 10 Sudoeste 0 -- -- 89
2020-07-17 02:00:00 18 6 Sudoeste 9 Sudoeste 0 -- -- 88
2020-07-17 01:00:00 18.4 3 Sudoeste 10 Sudoeste 0 -- -- 86
2020-07-17 00:00:00 19.1 5 Sudoeste 8 Sudoeste 0 -- -- 84
2020-07-16 23:00:00 20.1 0 Calma 5 Sur 0 -- -- 79
2020-07-16 22:00:00 21.6 2 Sur 8 Sur 0 -- -- 74
2020-07-16 21:00:00 23.2 2 Sudeste 13 Este 0 -- -- 71
2020-07-16 20:00:00 23.9 7 Sudeste 19 Sudeste 0 -- -- 70
2020-07-16 19:00:00 24.4 10 Sudeste 22 Este 0 -- -- 69
2020-07-16 18:00:00 25.1 12 Sudeste 28 Sudeste 0 -- -- 65
2020-07-16 17:00:00 26.6 14 Sudeste 28 Sudeste 0 -- -- 58
2020-07-16 16:00:00 27 13 Sudeste 27 Sudeste 0 -- -- 54
2020-07-16 15:00:00 27.1 11 Sudeste 28 Sudeste 0 -- -- 54
2020-07-16 14:00:00 26.4 10 Sudeste 26 Sudeste 0 -- -- 55
2020-07-16 13:00:00 26.1 12 Sudeste 28 Sudeste 0 -- -- 56
2020-07-16 12:00:00 26.8 13 Sudeste 22 Sudeste 0 -- -- 56
2020-07-16 11:00:00 26.5 8 Nordeste 16 Nordeste 0 -- -- 59
2020-07-16 10:00:00 25.2 8 Norte 13 Noroeste 0 -- -- 62
2020-07-16 09:00:00 22.8 4 Norte 6 Norte 0 -- -- 65
2020-07-16 08:00:00 18.4 0 Calma 10 Sudoeste 0 -- -- 86
2020-07-16 07:00:00 15.9 4 Sudoeste 10 Sudoeste 0 -- -- 92
2020-07-16 06:00:00 16.2 3 Sudoeste 11 Sudoeste 0 -- -- 91
2020-07-16 05:00:00 16.8 5 Sudoeste 12 Sudoeste 0 -- -- 90
2020-07-16 04:00:00 17 7 Sudoeste 12 Sudoeste 0 -- -- 88
2020-07-16 03:00:00 17.5 6 Sudoeste 10 Sudoeste 0 -- -- 87
2020-07-16 02:00:00 18.3 8 Sudoeste 10 Sudoeste 0 -- -- 84
2020-07-16 01:00:00 19.3 6 Sudoeste 8 Sudoeste 0 -- -- 80
2020-07-16 00:00:00 19.5 6 Sudoeste 9 Sudoeste 0 -- -- 80
2020-07-15 23:00:00 19.4 6 Sudoeste 9 Sudoeste 0 -- -- 80
2020-07-15 22:00:00 20.9 2 Sudoeste 8 Sudeste 0 -- -- 74
2020-07-15 21:00:00 23.1 4 Sudeste 14 Sudeste 0 -- -- 65
2020-07-15 20:00:00 24.4 8 Sudeste 18 Nordeste 0 -- -- 67
2020-07-15 19:00:00 24.9 7 Sudeste 23 Este 0 -- -- 66
2020-07-15 18:00:00 26 10 Sudeste 23 Este 0 -- -- 61
2020-07-15 17:00:00 25.9 11 Sudeste 25 Este 0 -- -- 60
2020-07-15 16:00:00 27.8 5 Sudoeste 18 Este 0 -- -- 50
2020-07-15 15:00:00 27.7 6 Sur 33 Sudeste 0 -- -- 50
2020-07-15 14:00:00 26.7 9 Este 23 Este 0 -- -- 55
2020-07-15 13:00:00 26.3 7 Sudeste 17 Este 0 -- -- 56
2020-07-15 12:00:00 24.9 7 Sudeste 21 Sudeste 0 -- -- 57
2020-07-15 11:00:00 25.6 5 Este 13 Sudeste 0 -- -- 54
2020-07-15 10:00:00 23.9 3 Sudeste 5 Este 0 -- -- 60
2020-07-15 09:00:00 21.1 2 Este 4 Sudoeste 0 -- -- 78
2020-07-15 08:00:00 17.3 3 Sudoeste 10 Sudoeste 0 -- -- 95
2020-07-15 07:00:00 14.8 3 Sudoeste 10 Sudoeste 0 -- -- 97
2020-07-15 06:00:00 14.5 0 Calma 9 Sudoeste 0 -- -- 96
2020-07-15 05:00:00 14.6 6 Sudoeste 9 Sudoeste 0 -- -- 96
2020-07-15 04:00:00 15 6 Sudoeste 14 Sudoeste 0 -- -- 96
2020-07-15 03:00:00 14.8 7 Sudoeste 10 Sudoeste 0 -- -- 95
2020-07-15 02:00:00 15.6 8 Sudoeste 14 Sudoeste 0 -- -- 94
2020-07-15 01:00:00 16 10 Sudoeste 14 Sudoeste 0 -- -- 95
2020-07-15 00:00:00 16.7 7 Sudoeste 14 Sudoeste 0 -- -- 94
2020-07-14 23:00:00 17.3 10 Sudoeste 12 Sudoeste 0 -- -- 93
2020-07-14 22:00:00 18.8 8 Sudoeste 11 Sudoeste 0.2 -- -- 90
2020-07-14 21:00:00 20.5 2 Oeste 8 Sudoeste 0 -- -- 87
2020-07-14 20:00:00 20.3 6 Oeste 21 Norte 0.2 -- -- 89
2020-07-14 19:00:00 19.9 12 Sur 22 Sur 1.2 -- -- 88
2020-07-14 18:00:00 22.6 5 Sudeste 20 Sudeste 0 -- -- 69
2020-07-14 17:00:00 24.5 7 Sudeste 23 Este 0 -- -- 53
2020-07-14 16:00:00 26.8 13 Este 28 Sudeste 0 -- -- 47
2020-07-14 15:00:00 26.1 10 Este 23 Sudeste 0 -- -- 54
2020-07-14 14:00:00 26.5 8 Este 22 Este 0 -- -- 48
2020-07-14 13:00:00 26.5 8 Sudeste 24 Sudeste 0 -- -- 51
2020-07-14 12:00:00 26.7 13 Sudeste 22 Sudeste 0 -- -- 52
2020-07-14 11:00:00 25.5 7 Este 15 Este 0 -- -- 48
2020-07-14 10:00:00 25.7 7 Este 13 Sudeste 0 -- -- 50
2020-07-14 09:00:00 23.4 0 Calma 4 Este 0 -- -- 73
2020-07-14 08:00:00 20.5 0 Calma 10 Sudoeste 0 -- -- 87
2020-07-14 07:00:00 18 7 Sudoeste 11 Sudoeste 0 -- -- 91
2020-07-14 06:00:00 18.7 7 Sudoeste 10 Sudoeste 0 -- -- 90
2020-07-14 05:00:00 19.5 6 Sudoeste 10 Sudoeste 0 -- -- 88
2020-07-14 04:00:00 20.1 5 Sudoeste 9 Sudoeste 0 -- -- 86
2020-07-14 03:00:00 20.8 4 Sudoeste 6 Sudoeste 0 -- -- 86
2020-07-14 02:00:00 21.1 3 Sudoeste 6 Sudoeste 0 -- -- 84
2020-07-14 01:00:00 21.3 3 Sudoeste 5 Sudoeste 0 -- -- 84
2020-07-14 00:00:00 21.7 3 Sudoeste 8 Sudoeste 0 -- -- 80